sensor_id;sensor_type;location;lat;lon;timestamp;pressure;altitude;pressure_sealevel;temperature;humidity
55679;BME280;41573;51.446;-2.018;2023-10-08T00:00:31;101834.09;;;20.61;100.00
55679;BME280;41573;51.446;-2.018;2023-10-08T00:03:14;101835.25;;;20.58;100.00
55679;BME280;41573;51.446;-2.018;2023-10-08T00:05:40;101830.31;;;20.52;100.00
55679;BME280;41573;51.446;-2.018;2023-10-08T00:08:06;101826.50;;;20.55;100.00
55679;BME280;41573;51.446;-2.018;2023-10-08T00:10:38;101828.38;;;20.43;100.00
55679;BME280;41573;51.446;-2.018;2023-10-08T00:13:05;101823.25;;;20.28;100.00
55679;BME280;41573;51.446;-2.018;2023-10-08T00:15:33;101821.91;;;20.23;100.00
55679;BME280;41573;51.446;-2.018;2023-10-08T00:17:58;101831.41;;;20.17;100.00
55679;BME280;41573;51.446;-2.018;2023-10-08T00:20:26;101817.13;;;20.15;100.00
55679;BME280;41573;51.446;-2.018;2023-10-08T00:22:53;101827.81;;;20.17;100.00
55679;BME280;41573;51.446;-2.018;2023-10-08T00:25:20;101833.22;;;20.17;100.00
55679;BME280;41573;51.446;-2.018;2023-10-08T00:27:45;101835.59;;;20.10;100.00
55679;BME280;41573;51.446;-2.018;2023-10-08T00:30:14;101830.53;;;20.05;100.00
55679;BME280;41573;51.446;-2.018;2023-10-08T00:32:43;101828.84;;;19.93;100.00
55679;BME280;41573;51.446;-2.018;2023-10-08T00:35:08;101822.41;;;20.05;100.00
55679;BME280;41573;51.446;-2.018;2023-10-08T00:37:38;101818.47;;;20.09;100.00
55679;BME280;41573;51.446;-2.018;2023-10-08T00:40:05;101815.06;;;20.07;100.00
55679;BME280;41573;51.446;-2.018;2023-10-08T00:42:36;101804.22;;;20.07;100.00
55679;BME280;41573;51.446;-2.018;2023-10-08T00:45:02;101818.34;;;20.11;100.00
55679;BME280;41573;51.446;-2.018;2023-10-08T00:47:29;101812.09;;;20.10;100.00
55679;BME280;41573;51.446;-2.018;2023-10-08T00:49:59;101809.13;;;20.13;100.00
55679;BME280;41573;51.446;-2.018;2023-10-08T00:52:35;101805.72;;;20.11;100.00
55679;BME280;41573;51.446;-2.018;2023-10-08T00:55:27;101798.31;;;20.13;100.00
55679;BME280;41573;51.446;-2.018;2023-10-08T00:57:57;101802.38;;;20.19;100.00
55679;BME280;41573;51.446;-2.018;2023-10-08T01:00:24;101797.81;;;20.20;100.00
55679;BME280;41573;51.446;-2.018;2023-10-08T01:02:57;101800.50;;;20.20;100.00
55679;BME280;41573;51.446;-2.018;2023-10-08T01:05:26;101806.44;;;20.13;100.00
55679;BME280;41573;51.446;-2.018;2023-10-08T01:08:07;101799.16;;;20.14;100.00
55679;BME280;41573;51.446;-2.018;2023-10-08T01:10:32;101798.31;;;20.13;100.00
55679;BME280;41573;51.446;-2.018;2023-10-08T01:12:58;101802.00;;;20.01;100.00
55679;BME280;41573;51.446;-2.018;2023-10-08T01:15:26;101811.97;;;20.01;100.00
55679;BME280;41573;51.446;-2.018;2023-10-08T01:17:55;101814.09;;;19.97;100.00
55679;BME280;41573;51.446;-2.018;2023-10-08T01:20:32;101809.91;;;19.93;100.00
55679;BME280;41573;51.446;-2.018;2023-10-08T01:23:10;101813.81;;;19.77;100.00
55679;BME280;41573;51.446;-2.018;2023-10-08T01:25:39;101799.56;;;19.87;100.00
55679;BME280;41573;51.446;-2.018;2023-10-08T01:28:06;101800.31;;;19.89;100.00
55679;BME280;41573;51.446;-2.018;2023-10-08T01:30:39;101808.91;;;19.94;100.00
55679;BME280;41573;51.446;-2.018;2023-10-08T01:33:07;101814.31;;;19.94;100.00
55679;BME280;41573;51.446;-2.018;2023-10-08T01:35:36;101799.56;;;19.87;100.00
55679;BME280;41573;51.446;-2.018;2023-10-08T01:38:02;101808.56;;;19.87;100.00
55679;BME280;41573;51.446;-2.018;2023-10-08T01:40:28;101799.31;;;19.90;100.00
55679;BME280;41573;51.446;-2.018;2023-10-08T01:42:55;101801.44;;;19.86;100.00
55679;BME280;41573;51.446;-2.018;2023-10-08T01:45:25;101805.84;;;19.87;100.00
55679;BME280;41573;51.446;-2.018;2023-10-08T01:47:50;101798.84;;;19.85;100.00
55679;BME280;41573;51.446;-2.018;2023-10-08T01:50:17;101804.25;;;19.85;100.00
55679;BME280;41573;51.446;-2.018;2023-10-08T01:52:54;101800.06;;;19.80;100.00
55679;BME280;41573;51.446;-2.018;2023-10-08T01:55:19;101799.09;;;19.82;100.00
55679;BME280;41573;51.446;-2.018;2023-10-08T01:57:48;101800.03;;;19.69;100.00
55679;BME280;41573;51.446;-2.018;2023-10-08T02:00:14;101801.00;;;19.68;100.00
55679;BME280;41573;51.446;-2.018;2023-10-08T02:02:49;101796.84;;;19.64;100.00
55679;BME280;41573;51.446;-2.018;2023-10-08T02:05:15;101792.19;;;19.55;100.00
55679;BME280;41573;51.446;-2.018;2023-10-08T02:07:41;101795.34;;;19.60;100.00
55679;BME280;41573;51.446;-2.018;2023-10-08T02:10:09;101787.16;;;19.61;100.00
55679;BME280;41573;51.446;-2.018;2023-10-08T02:12:35;101788.00;;;19.62;100.00
55679;BME280;41573;51.446;-2.018;2023-10-08T02:15:01;101787.16;;;19.61;100.00
55679;BME280;41573;51.446;-2.018;2023-10-08T02:17:28;101786.78;;;19.55;100.00
55679;BME280;41573;51.446;-2.018;2023-10-08T02:19:53;101785.28;;;19.51;100.00
55679;BME280;41573;51.446;-2.018;2023-10-08T02:22:18;101787.03;;;19.52;100.00
55679;BME280;41573;51.446;-2.018;2023-10-08T02:24:44;101797.31;;;19.46;100.00
55679;BME280;41573;51.446;-2.018;2023-10-08T02:27:10;101794.63;;;19.46;100.00
55679;BME280;41573;51.446;-2.018;2023-10-08T02:29:35;101794.63;;;19.46;100.00
55679;BME280;41573;51.446;-2.018;2023-10-08T02:32:00;101798.53;;;19.42;100.00
55679;BME280;41573;51.446;-2.018;2023-10-08T02:34:26;101793.25;;;19.41;100.00
55679;BME280;41573;51.446;-2.018;2023-10-08T02:36:51;101795.81;;;19.31;100.00
55679;BME280;41573;51.446;-2.018;2023-10-08T02:39:16;101800.84;;;19.36;100.00
55679;BME280;41573;51.446;-2.018;2023-10-08T02:41:51;101796.59;;;19.44;100.00
55679;BME280;41573;51.446;-2.018;2023-10-08T02:44:17;101798.91;;;19.38;100.00
55679;BME280;41573;51.446;-2.018;2023-10-08T02:46:43;101790.94;;;19.36;100.00
55679;BME280;41573;51.446;-2.018;2023-10-08T02:49:17;101793.88;;;19.33;100.00
55679;BME280;41573;51.446;-2.018;2023-10-08T02:51:45;101789.44;;;19.32;100.00
55679;BME280;41573;51.446;-2.018;2023-10-08T02:54:11;101790.66;;;19.28;100.00
55679;BME280;41573;51.446;-2.018;2023-10-08T02:56:52;101796.69;;;19.32;100.00
55679;BME280;41573;51.446;-2.018;2023-10-08T02:59:20;101796.44;;;19.23;100.00
55679;BME280;41573;51.446;-2.018;2023-10-08T03:01:48;101798.75;;;19.28;100.00
55679;BME280;41573;51.446;-2.018;2023-10-08T03:04:22;101797.88;;;19.16;100.00
55679;BME280;41573;51.446;-2.018;2023-10-08T03:06:49;101803.16;;;19.18;100.00
55679;BME280;41573;51.446;-2.018;2023-10-08T03:09:18;101800.09;;;19.22;100.00
55679;BME280;41573;51.446;-2.018;2023-10-08T03:11:49;101809.38;;;19.07;100.00
55679;BME280;41573;51.446;-2.018;2023-10-08T03:14:17;101809.53;;;19.17;100.00
55679;BME280;41573;51.446;-2.018;2023-10-08T03:16:53;101807.00;;;19.26;100.00
55679;BME280;41573;51.446;-2.018;2023-10-08T03:19:18;101811.50;;;19.15;100.00
55679;BME280;41573;51.446;-2.018;2023-10-08T03:21:48;101806.47;;;19.21;100.00
55679;BME280;41573;51.446;-2.018;2023-10-08T03:24:19;101805.75;;;19.19;100.00
55679;BME280;41573;51.446;-2.018;2023-10-08T03:27:00;101812.81;;;18.98;100.00
55679;BME280;41573;51.446;-2.018;2023-10-08T03:29:35;101817.63;;;19.17;100.00
55679;BME280;41573;51.446;-2.018;2023-10-08T03:32:10;101816.44;;;19.21;100.00
55679;BME280;41573;51.446;-2.018;2023-10-08T03:34:43;101816.06;;;19.25;100.00
55679;BME280;41573;51.446;-2.018;2023-10-08T03:37:11;101814.94;;;19.17;100.00
55679;BME280;41573;51.446;-2.018;2023-10-08T03:39:40;101812.38;;;19.15;100.00
55679;BME280;41573;51.446;-2.018;2023-10-08T03:42:41;101812.94;;;19.07;100.00
55679;BME280;41573;51.446;-2.018;2023-10-08T03:45:06;101808.78;;;19.03;100.00
55679;BME280;41573;51.446;-2.018;2023-10-08T03:47:37;101811.81;;;18.99;100.00
55679;BME280;41573;51.446;-2.018;2023-10-08T03:50:04;101810.97;;;18.98;100.00
55679;BME280;41573;51.446;-2.018;2023-10-08T03:52:37;101812.41;;;18.91;100.00
55679;BME280;41573;51.446;-2.018;2023-10-08T03:55:06;101803.88;;;18.84;100.00
55679;BME280;41573;51.446;-2.018;2023-10-08T03:57:52;101792.69;;;18.77;100.00
55679;BME280;41573;51.446;-2.018;2023-10-08T04:00:24;101796.81;;;18.70;100.00
55679;BME280;41573;51.446;-2.018;2023-10-08T04:02:57;101790.16;;;18.63;100.00
55679;BME280;41573;51.446;-2.018;2023-10-08T04:05:26;101798.84;;;18.55;100.00
55679;BME280;41573;51.446;-2.018;2023-10-08T04:08:05;101797.25;;;18.53;100.00
55679;BME280;41573;51.446;-2.018;2023-10-08T04:10:42;101793.28;;;18.46;100.00
55679;BME280;41573;51.446;-2.018;2023-10-08T04:13:07;101796.94;;;18.44;100.00
55679;BME280;41573;51.446;-2.018;2023-10-08T04:15:34;101793.75;;;18.39;100.00
55679;BME280;41573;51.446;-2.018;2023-10-08T04:17:59;101808.66;;;18.32;100.00
55679;BME280;41573;51.446;-2.018;2023-10-08T04:20:28;101804.47;;;18.28;100.00
55679;BME280;41573;51.446;-2.018;2023-10-08T04:22:58;101803.94;;;18.23;100.00
55679;BME280;41573;51.446;-2.018;2023-10-08T04:25:25;101805.34;;;18.16;100.00
55679;BME280;41573;51.446;-2.018;2023-10-08T04:27:50;101807.59;;;18.22;100.00
55679;BME280;41573;51.446;-2.018;2023-10-08T04:30:16;101802.16;;;18.35;100.00
55679;BME280;41573;51.446;-2.018;2023-10-08T04:32:41;101800.56;;;18.32;100.00
55679;BME280;41573;51.446;-2.018;2023-10-08T04:35:07;101799.19;;;18.26;100.00
55679;BME280;41573;51.446;-2.018;2023-10-08T04:37:35;101795.84;;;18.23;100.00
55679;BME280;41573;51.446;-2.018;2023-10-08T04:40:00;101805.78;;;18.22;100.00
55679;BME280;41573;51.446;-2.018;2023-10-08T04:42:26;101795.97;;;18.21;100.00
55679;BME280;41573;51.446;-2.018;2023-10-08T04:44:52;101789.91;;;18.18;100.00
55679;BME280;41573;51.446;-2.018;2023-10-08T04:47:17;101792.53;;;18.19;100.00
55679;BME280;41573;51.446;-2.018;2023-10-08T04:49:57;101794.03;;;18.11;100.00
55679;BME280;41573;51.446;-2.018;2023-10-08T04:52:22;101788.44;;;18.01;100.00
55679;BME280;41573;51.446;-2.018;2023-10-08T04:54:50;101790.75;;;17.94;100.00
55679;BME280;41573;51.446;-2.018;2023-10-08T04:57:19;101785.34;;;17.94;100.00
55679;BME280;41573;51.446;-2.018;2023-10-08T04:59:47;101782.91;;;17.91;100.00
55679;BME280;41573;51.446;-2.018;2023-10-08T05:02:15;101783.28;;;17.85;100.00
55679;BME280;41573;51.446;-2.018;2023-10-08T05:05:01;101786.22;;;17.82;100.00
55679;BME280;41573;51.446;-2.018;2023-10-08T05:07:35;101786.78;;;17.74;100.00
55679;BME280;41573;51.446;-2.018;2023-10-08T05:10:10;101797.97;;;17.68;100.00
55679;BME280;41573;51.446;-2.018;2023-10-08T05:12:46;101799.25;;;17.62;100.00
55679;BME280;41573;51.446;-2.018;2023-10-08T05:15:26;101795.81;;;17.60;100.00
55679;BME280;41573;51.446;-2.018;2023-10-08T05:18:12;101793.25;;;17.58;100.00
55679;BME280;41573;51.446;-2.018;2023-10-08T05:20:37;101797.75;;;17.58;100.00
55679;BME280;41573;51.446;-2.018;2023-10-08T05:23:13;101792.81;;;17.52;100.00
55679;BME280;41573;51.446;-2.018;2023-10-08T05:25:54;101796.06;;;17.57;100.00
55679;BME280;41573;51.446;-2.018;2023-10-08T05:28:31;101798.75;;;17.57;100.00
55679;BME280;41573;51.446;-2.018;2023-10-08T05:31:10;101798.19;;;17.52;100.00
55679;BME280;41573;51.446;-2.018;2023-10-08T05:33:38;101794.88;;;17.48;100.00
55679;BME280;41573;51.446;-2.018;2023-10-08T05:36:22;101803.25;;;17.44;100.00
55679;BME280;41573;51.446;-2.018;2023-10-08T05:39:14;101795.16;;;17.44;100.00
55679;BME280;41573;51.446;-2.018;2023-10-08T05:41:55;101791.63;;;17.43;100.00
55679;BME280;41573;51.446;-2.018;2023-10-08T05:44:38;101789.25;;;17.38;100.00
55679;BME280;41573;51.446;-2.018;2023-10-08T05:47:05;101794.94;;;17.34;100.00
55679;BME280;41573;51.446;-2.018;2023-10-08T05:49:50;101797.22;;;17.27;100.00
55679;BME280;41573;51.446;-2.018;2023-10-08T05:52:33;101789.44;;;17.22;100.00
55679;BME280;41573;51.446;-2.018;2023-10-08T05:55:17;101789.78;;;17.18;100.00
55679;BME280;41573;51.446;-2.018;2023-10-08T05:57:55;101782.66;;;17.17;100.00
55679;BME280;41573;51.446;-2.018;2023-10-08T06:00:49;101790.84;;;17.15;100.00
55679;BME280;41573;51.446;-2.018;2023-10-08T06:03:14;101783.53;;;17.17;100.00
55679;BME280;41573;51.446;-2.018;2023-10-08T06:06:07;101786.34;;;17.16;100.00
55679;BME280;41573;51.446;-2.018;2023-10-08T06:08:48;101787.19;;;17.16;100.00
55679;BME280;41573;51.446;-2.018;2023-10-08T06:11:47;101780.19;;;17.14;100.00
55679;BME280;41573;51.446;-2.018;2023-10-08T06:14:32;101776.31;;;17.18;100.00
55679;BME280;41573;51.446;-2.018;2023-10-08T06:17:15;101781.69;;;17.18;100.00
55679;BME280;41573;51.446;-2.018;2023-10-08T06:20:09;101773.84;;;17.15;100.00
55679;BME280;41573;51.446;-2.018;2023-10-08T06:22:36;101775.78;;;17.13;100.00
55679;BME280;41573;51.446;-2.018;2023-10-08T06:25:01;101776.19;;;17.06;100.00
55679;BME280;41573;51.446;-2.018;2023-10-08T06:27:42;101777.69;;;16.98;100.00
55679;BME280;41573;51.446;-2.018;2023-10-08T06:30:10;101785.66;;;16.99;100.00
55679;BME280;41573;51.446;-2.018;2023-10-08T06:32:42;101789.06;;;16.88;100.00
55679;BME280;41573;51.446;-2.018;2023-10-08T06:35:07;101783.22;;;16.82;100.00
55679;BME280;41573;51.446;-2.018;2023-10-08T06:37:34;101785.25;;;16.78;100.00
55679;BME280;41573;51.446;-2.018;2023-10-08T06:39:59;101790.22;;;16.71;100.00
55679;BME280;41573;51.446;-2.018;2023-10-08T06:42:25;101789.31;;;16.71;100.00
55679;BME280;41573;51.446;-2.018;2023-10-08T06:44:52;101789.00;;;16.76;100.00
55679;BME280;41573;51.446;-2.018;2023-10-08T06:47:18;101792.38;;;16.79;100.00
55679;BME280;41573;51.446;-2.018;2023-10-08T06:49:45;101789.78;;;16.78;100.00
55679;BME280;41573;51.446;-2.018;2023-10-08T06:52:11;101796.91;;;16.79;100.00
55679;BME280;41573;51.446;-2.018;2023-10-08T06:54:38;101796.69;;;16.82;100.00
55679;BME280;41573;51.446;-2.018;2023-10-08T06:57:04;101798.97;;;16.88;100.00
55679;BME280;41573;51.446;-2.018;2023-10-08T06:59:29;101806.63;;;16.94;100.00
55679;BME280;41573;51.446;-2.018;2023-10-08T07:01:56;101810.66;;;17.01;100.00
55679;BME280;41573;51.446;-2.018;2023-10-08T07:04:24;101812.81;;;17.09;100.00
55679;BME280;41573;51.446;-2.018;2023-10-08T07:06:49;101809.06;;;17.12;100.00
55679;BME280;41573;51.446;-2.018;2023-10-08T07:09:17;101809.78;;;17.14;100.00
55679;BME280;41573;51.446;-2.018;2023-10-08T07:12:08;101809.38;;;17.20;100.00
55679;BME280;41573;51.446;-2.018;2023-10-08T07:14:39;101807.66;;;17.19;100.00
55679;BME280;41573;51.446;-2.018;2023-10-08T07:17:06;101818.94;;;17.24;100.00
55679;BME280;41573;51.446;-2.018;2023-10-08T07:19:35;101821.25;;;17.30;100.00
55679;BME280;41573;51.446;-2.018;2023-10-08T07:22:04;101822.88;;;17.33;100.00
55679;BME280;41573;51.446;-2.018;2023-10-08T07:24:42;101821.75;;;17.35;100.00
55679;BME280;41573;51.446;-2.018;2023-10-08T07:27:10;101821.56;;;17.38;100.00
55679;BME280;41573;51.446;-2.018;2023-10-08T07:29:36;101816.72;;;17.44;100.00
55679;BME280;41573;51.446;-2.018;2023-10-08T07:32:02;101816.31;;;17.50;100.00
55679;BME280;41573;51.446;-2.018;2023-10-08T07:34:38;101806.06;;;17.55;100.00
55679;BME280;41573;51.446;-2.018;2023-10-08T07:37:04;101810.91;;;17.63;100.00
55679;BME280;41573;51.446;-2.018;2023-10-08T07:39:31;101815.13;;;17.67;100.00
55679;BME280;41573;51.446;-2.018;2023-10-08T07:41:56;101808.50;;;17.71;100.00
55679;BME280;41573;51.446;-2.018;2023-10-08T07:44:22;101811.63;;;17.78;100.00
55679;BME280;41573;51.446;-2.018;2023-10-08T07:46:50;101815.00;;;17.81;100.00
55679;BME280;41573;51.446;-2.018;2023-10-08T07:49:16;101815.41;;;17.88;100.00
55679;BME280;41573;51.446;-2.018;2023-10-08T07:51:42;101808.31;;;17.87;100.00
55679;BME280;41573;51.446;-2.018;2023-10-08T07:54:15;101813.25;;;17.80;100.00
55679;BME280;41573;51.446;-2.018;2023-10-08T07:56:41;101810.69;;;17.79;100.00
55679;BME280;41573;51.446;-2.018;2023-10-08T07:59:07;101804.97;;;17.70;100.00
55679;BME280;41573;51.446;-2.018;2023-10-08T08:01:34;101799.47;;;17.72;100.00
55679;BME280;41573;51.446;-2.018;2023-10-08T08:03:59;101807.13;;;17.78;100.00
55679;BME280;41573;51.446;-2.018;2023-10-08T08:06:25;101804.31;;;17.80;100.00
55679;BME280;41573;51.446;-2.018;2023-10-08T08:08:51;101801.41;;;17.83;100.00
55679;BME280;41573;51.446;-2.018;2023-10-08T08:11:16;101808.53;;;17.84;100.00
55679;BME280;41573;51.446;-2.018;2023-10-08T08:13:44;101808.31;;;17.87;100.00
55679;BME280;41573;51.446;-2.018;2023-10-08T08:16:10;101813.28;;;17.93;100.00
55679;BME280;41573;51.446;-2.018;2023-10-08T08:18:45;101811.84;;;18.00;100.00
55679;BME280;41573;51.446;-2.018;2023-10-08T08:21:14;101808.81;;;18.05;100.00
55679;BME280;41573;51.446;-2.018;2023-10-08T08:23:45;101804.81;;;18.11;100.00
55679;BME280;41573;51.446;-2.018;2023-10-08T08:26:14;101807.31;;;18.14;100.00
55679;BME280;41573;51.446;-2.018;2023-10-08T08:28:51;101806.56;;;18.12;100.00
55679;BME280;41573;51.446;-2.018;2023-10-08T08:31:16;101813.44;;;18.16;100.00
55679;BME280;41573;51.446;-2.018;2023-10-08T08:33:44;101819.56;;;18.18;100.00
55679;BME280;41573;51.446;-2.018;2023-10-08T08:36:21;101826.66;;;18.32;100.00
55679;BME280;41573;51.446;-2.018;2023-10-08T08:38:47;101836.53;;;18.44;100.00
55679;BME280;41573;51.446;-2.018;2023-10-08T08:41:12;101835.53;;;18.58;100.00
55679;BME280;41573;51.446;-2.018;2023-10-08T08:43:38;101845.28;;;18.72;100.00
55679;BME280;41573;51.446;-2.018;2023-10-08T08:46:09;101842.09;;;18.91;100.00
55679;BME280;41573;51.446;-2.018;2023-10-08T08:48:37;101859.31;;;19.01;100.00
55679;BME280;41573;51.446;-2.018;2023-10-08T08:51:04;101864.75;;;19.12;100.00
55679;BME280;41573;51.446;-2.018;2023-10-08T08:53:32;101873.88;;;19.23;100.00
55679;BME280;41573;51.446;-2.018;2023-10-08T08:55:57;101875.88;;;19.32;100.00
55679;BME280;41573;51.446;-2.018;2023-10-08T08:58:24;101877.97;;;19.40;100.00
55679;BME280;41573;51.446;-2.018;2023-10-08T09:00:50;101880.09;;;19.48;100.00
55679;BME280;41573;51.446;-2.018;2023-10-08T09:03:17;101883.16;;;19.54;100.00
55679;BME280;41573;51.446;-2.018;2023-10-08T09:05:44;101875.19;;;19.64;100.00
55679;BME280;41573;51.446;-2.018;2023-10-08T09:08:14;101858.28;;;19.73;100.00
55679;BME280;41573;51.446;-2.018;2023-10-08T09:10:42;101861.75;;;19.87;100.00
55679;BME280;41573;51.446;-2.018;2023-10-08T09:13:19;101849.44;;;20.05;100.00
55679;BME280;41573;51.446;-2.018;2023-10-08T09:15:46;101844.78;;;20.19;100.00
55679;BME280;41573;51.446;-2.018;2023-10-08T09:18:11;101844.38;;;20.35;100.00
55679;BME280;41573;51.446;-2.018;2023-10-08T09:20:39;101846.28;;;20.55;100.00
55679;BME280;41573;51.446;-2.018;2023-10-08T09:23:09;101857.03;;;20.57;100.00
55679;BME280;41573;51.446;-2.018;2023-10-08T09:25:41;101860.69;;;20.78;100.00
55679;BME280;41573;51.446;-2.018;2023-10-08T09:28:06;101869.47;;;20.92;100.00
55679;BME280;41573;51.446;-2.018;2023-10-08T09:30:36;101857.88;;;21.01;100.00
55679;BME280;41573;51.446;-2.018;2023-10-08T09:33:10;101856.81;;;21.13;100.00
55679;BME280;41573;51.446;-2.018;2023-10-08T09:35:37;101858.28;;;21.17;100.00
55679;BME280;41573;51.446;-2.018;2023-10-08T09:38:03;101855.56;;;21.17;100.00
55679;BME280;41573;51.446;-2.018;2023-10-08T09:40:28;101859.81;;;21.31;100.00
55679;BME280;41573;51.446;-2.018;2023-10-08T09:42:54;101840.66;;;21.44;100.00
55679;BME280;41573;51.446;-2.018;2023-10-08T09:45:20;101840.88;;;21.52;100.00
55679;BME280;41573;51.446;-2.018;2023-10-08T09:47:55;101843.81;;;21.49;100.00
55679;BME280;41573;51.446;-2.018;2023-10-08T09:50:21;101835.28;;;21.75;100.00
55679;BME280;41573;51.446;-2.018;2023-10-08T09:52:49;101846.47;;;21.92;100.00
55679;BME280;41573;51.446;-2.018;2023-10-08T09:55:21;101843.81;;;22.01;100.00
55679;BME280;41573;51.446;-2.018;2023-10-08T09:57:47;101843.28;;;22.08;100.00
55679;BME280;41573;51.446;-2.018;2023-10-08T10:00:12;101855.72;;;22.20;100.00
55679;BME280;41573;51.446;-2.018;2023-10-08T10:02:43;101855.75;;;22.30;100.00
55679;BME280;41573;51.446;-2.018;2023-10-08T10:05:12;101842.66;;;22.35;100.00
55679;BME280;41573;51.446;-2.018;2023-10-08T10:07:40;101819.13;;;22.45;100.00
55679;BME280;41573;51.446;-2.018;2023-10-08T10:10:30;101818.13;;;22.46;100.00
55679;BME280;41573;51.446;-2.018;2023-10-08T10:13:03;101813.84;;;22.53;100.00
55679;BME280;41573;51.446;-2.018;2023-10-08T10:15:29;101804.44;;;22.58;100.00
55679;BME280;41573;51.446;-2.018;2023-10-08T10:17:58;101803.56;;;22.67;100.00
55679;BME280;41573;51.446;-2.018;2023-10-08T10:20:24;101798.97;;;22.87;100.00
55679;BME280;41573;51.446;-2.018;2023-10-08T10:22:49;101792.25;;;23.01;100.00
55679;BME280;41573;51.446;-2.018;2023-10-08T10:25:18;101792.41;;;22.99;100.00
55679;BME280;41573;51.446;-2.018;2023-10-08T10:28:28;101793.81;;;23.33;100.00
55679;BME280;41573;51.446;-2.018;2023-10-08T10:30:29;101790.63;;;23.47;100.00
55679;BME280;41573;51.446;-2.018;2023-10-08T10:32:54;101786.72;;;23.60;100.00
55679;BME280;41573;51.446;-2.018;2023-10-08T10:35:24;101791.97;;;23.71;100.00
55679;BME280;41573;51.446;-2.018;2023-10-08T10:37:52;101781.50;;;23.76;100.00
55679;BME280;41573;51.446;-2.018;2023-10-08T10:40:20;101775.88;;;23.87;100.00
55679;BME280;41573;51.446;-2.018;2023-10-08T10:42:56;101775.56;;;23.90;100.00
55679;BME280;41573;51.446;-2.018;2023-10-08T10:45:21;101780.81;;;24.02;100.00
55679;BME280;41573;51.446;-2.018;2023-10-08T10:48:05;101781.66;;;24.12;100.00
55679;BME280;41573;51.446;-2.018;2023-10-08T10:50:56;101775.06;;;24.05;100.00
55679;BME280;41573;51.446;-2.018;2023-10-08T10:55:59;101767.41;;;24.18;100.00
55679;BME280;41573;51.446;-2.018;2023-10-08T10:58:35;101773.09;;;24.25;100.00
55679;BME280;41573;51.446;-2.018;2023-10-08T11:01:04;101783.78;;;24.36;100.00
55679;BME280;41573;51.446;-2.018;2023-10-08T11:03:48;101782.81;;;24.27;100.00
55679;BME280;41573;51.446;-2.018;2023-10-08T11:06:13;101773.97;;;24.43;100.00
55679;BME280;41573;51.446;-2.018;2023-10-08T11:08:47;101763.09;;;24.61;100.00
55679;BME280;41573;51.446;-2.018;2023-10-08T11:11:13;101757.03;;;24.68;100.00
55679;BME280;41573;51.446;-2.018;2023-10-08T11:13:42;101731.81;;;24.66;100.00
55679;BME280;41573;51.446;-2.018;2023-10-08T11:16:08;101733.44;;;25.03;100.00
55679;BME280;41573;51.446;-2.018;2023-10-08T11:18:42;101735.47;;;25.19;100.00
55679;BME280;41573;51.446;-2.018;2023-10-08T11:21:08;101720.53;;;25.05;100.00
55679;BME280;41573;51.446;-2.018;2023-10-08T11:23:49;101733.56;;;25.45;100.00
55679;BME280;41573;51.446;-2.018;2023-10-08T11:26:18;101740.06;;;25.53;100.00
55679;BME280;41573;51.446;-2.018;2023-10-08T11:28:44;101722.59;;;25.63;100.00
55679;BME280;41573;51.446;-2.018;2023-10-08T11:31:13;101727.75;;;25.75;100.00
55679;BME280;41573;51.446;-2.018;2023-10-08T11:33:40;101733.09;;;25.93;100.00
55679;BME280;41573;51.446;-2.018;2023-10-08T11:36:06;101733.66;;;26.05;100.00
55679;BME280;41573;51.446;-2.018;2023-10-08T11:38:39;101726.00;;;26.17;100.00
55679;BME280;41573;51.446;-2.018;2023-10-08T11:41:11;101732.50;;;26.24;100.00
55679;BME280;41573;51.446;-2.018;2023-10-08T11:43:45;101721.75;;;26.14;100.00
55679;BME280;41573;51.446;-2.018;2023-10-08T11:46:11;101720.69;;;26.07;100.00
55679;BME280;41573;51.446;-2.018;2023-10-08T11:48:39;101709.47;;;26.26;100.00
55679;BME280;41573;51.446;-2.018;2023-10-08T11:51:08;101702.31;;;26.25;100.00
55679;BME280;41573;51.446;-2.018;2023-10-08T11:53:37;101722.78;;;26.38;100.00
55679;BME280;41573;51.446;-2.018;2023-10-08T11:56:02;101703.00;;;26.27;100.00
55679;BME280;41573;51.446;-2.018;2023-10-08T11:58:27;101700.97;;;26.46;100.00
55679;BME280;41573;51.446;-2.018;2023-10-08T12:01:05;101704.22;;;26.49;100.00
55679;BME280;41573;51.446;-2.018;2023-10-08T12:03:31;101705.22;;;26.65;100.00
55679;BME280;41573;51.446;-2.018;2023-10-08T12:05:56;101696.34;;;26.63;100.00
55679;BME280;41573;51.446;-2.018;2023-10-08T12:08:25;101699.28;;;26.70;100.00
55679;BME280;41573;51.446;-2.018;2023-10-08T12:10:52;101683.22;;;26.66;100.00
55679;BME280;41573;51.446;-2.018;2023-10-08T12:13:19;101685.94;;;26.75;100.00
55679;BME280;41573;51.446;-2.018;2023-10-08T12:15:49;101675.00;;;26.83;100.00
55679;BME280;41573;51.446;-2.018;2023-10-08T12:18:15;101680.94;;;26.95;100.00
55679;BME280;41573;51.446;-2.018;2023-10-08T12:20:43;101684.72;;;27.02;100.00
55679;BME280;41573;51.446;-2.018;2023-10-08T12:23:09;101672.19;;;27.16;100.00
55679;BME280;41573;51.446;-2.018;2023-10-08T12:25:38;101682.13;;;27.09;100.00
55679;BME280;41573;51.446;-2.018;2023-10-08T12:28:04;101666.06;;;27.14;100.00
55679;BME280;41573;51.446;-2.018;2023-10-08T12:30:33;101654.75;;;27.25;100.00
55679;BME280;41573;51.446;-2.018;2023-10-08T12:33:06;101648.03;;;27.36;100.00
55679;BME280;41573;51.446;-2.018;2023-10-08T12:35:32;101639.16;;;27.42;100.00
55679;BME280;41573;51.446;-2.018;2023-10-08T12:37:57;101643.94;;;27.32;100.00
55679;BME280;41573;51.446;-2.018;2023-10-08T12:40:22;101643.16;;;27.55;100.00
55679;BME280;41573;51.446;-2.018;2023-10-08T12:42:48;101626.91;;;27.61;100.00
55679;BME280;41573;51.446;-2.018;2023-10-08T12:45:13;101625.19;;;27.60;100.00
55679;BME280;41573;51.446;-2.018;2023-10-08T12:47:38;101616.44;;;27.33;100.00